Time;durP1;ratioP1;P1;durP2;ratioP2;P2;SDS_P1;SDS_P2;PMS_P1;PMS_P2;Temp;Humidity;BMP_temperature;BMP_pressure;BME280_temperature;BME280_humidity;BME280_pressure;Samples;Min_cycle;Max_cycle;Signal;HPM_P1;HPM_P2
2022/07/24 00:01:51;;;;;;;2.42;2.00;;;24.00;99.90;;;;;;5214849;28;20017;-61
2022/07/24 00:04:27;;;;;;;2.25;1.90;;;23.90;99.90;;;;;;5212123;28;20294;-61
2022/07/24 00:07:04;;;;;;;2.53;2.05;;;23.90;99.90;;;;;;5217726;28;20033;-62
2022/07/24 00:09:38;;;;;;;2.85;2.50;;;23.80;99.90;;;;;;5199195;28;20029;-62
2022/07/24 00:12:12;;;;;;;4.13;2.08;;;23.80;99.90;;;;;;5217587;28;20051;-62
2022/07/24 00:14:46;;;;;;;3.25;1.85;;;23.80;99.90;;;;;;5217450;28;20027;-62
2022/07/24 00:17:18;;;;;;;2.40;1.88;;;23.80;99.90;;;;;;5241659;28;20050;-62
2022/07/24 00:19:51;;;;;;;3.17;2.20;;;23.80;99.90;;;;;;5239774;28;20039;-61
2022/07/24 00:22:23;;;;;;;2.60;2.07;;;23.80;99.90;;;;;;5239296;28;20028;-62
2022/07/24 00:24:57;;;;;;;2.50;1.98;;;23.80;99.90;;;;;;5238255;28;20028;-61
2022/07/24 00:27:32;;;;;;;2.33;2.10;;;23.80;99.90;;;;;;5240913;28;20258;-61
2022/07/24 00:30:05;;;;;;;3.28;2.00;;;23.80;99.90;;;;;;5237556;28;20241;-61
2022/07/24 00:32:36;;;;;;;3.47;2.22;;;23.70;99.90;;;;;;5222352;28;20040;-61
2022/07/24 00:35:12;;;;;;;2.20;2.00;;;23.70;99.90;;;;;;5241043;28;20021;-61
2022/07/24 00:37:46;;;;;;;2.58;2.30;;;23.70;99.90;;;;;;5222057;28;20039;-62
2022/07/24 00:40:22;;;;;;;3.63;2.33;;;23.60;99.90;;;;;;5239680;28;20016;-62
2022/07/24 00:42:53;;;;;;;3.83;2.20;;;23.60;99.90;;;;;;5235691;28;20241;-61
2022/07/24 00:45:24;;;;;;;3.63;2.30;;;23.50;99.90;;;;;;5237226;28;20025;-62
2022/07/24 00:47:56;;;;;;;4.68;2.45;;;23.50;99.90;;;;;;5219543;28;20036;-62
2022/07/24 00:50:29;;;;;;;2.97;2.28;;;23.40;99.90;;;;;;5239146;28;20305;-62
2022/07/24 00:53:05;;;;;;;4.38;2.10;;;23.40;99.90;;;;;;5238266;28;20058;-61
2022/07/24 00:55:38;;;;;;;3.00;2.70;;;23.40;99.90;;;;;;5220750;28;20054;-61
2022/07/24 00:58:11;;;;;;;2.78;1.98;;;23.40;99.90;;;;;;5238160;28;20150;-61
2022/07/24 01:00:44;;;;;;;4.43;2.28;;;23.30;99.90;;;;;;5223708;28;20025;-60
2022/07/24 01:03:16;;;;;;;4.95;2.83;;;23.20;99.90;;;;;;5199248;28;20060;-61
2022/07/24 01:05:50;;;;;;;4.53;1.95;;;23.20;99.90;;;;;;5192169;28;20048;-61
2022/07/24 01:08:22;;;;;;;;;;;23.10;99.90;;;;;;5222940;28;20025;-62
2022/07/24 01:10:59;;;;;;;3.80;2.63;;;23.10;99.90;;;;;;5220924;28;19913;-61
2022/07/24 01:13:30;;;;;;;2.90;2.20;;;23.10;99.90;;;;;;5220907;28;20016;-62
2022/07/24 01:16:08;;;;;;;3.20;2.20;;;23.00;99.90;;;;;;5240095;28;20036;-61
2022/07/24 01:18:39;;;;;;;3.28;2.53;;;23.00;99.90;;;;;;5225198;28;20360;-61
2022/07/24 01:21:13;;;;;;;3.25;2.35;;;23.00;99.90;;;;;;5240031;28;20029;-62
2022/07/24 01:23:46;;;;;;;2.88;2.35;;;22.90;99.90;;;;;;5223698;28;20205;-62
2022/07/24 01:26:20;;;;;;;3.45;2.53;;;22.90;99.90;;;;;;5240864;28;20342;-61
2022/07/24 01:28:56;;;;;;;3.15;2.30;;;22.80;99.90;;;;;;5223392;28;20025;-60
2022/07/24 01:31:30;;;;;;;3.92;1.90;;;22.80;99.90;;;;;;5224834;28;20411;-61
2022/07/24 01:34:03;;;;;;;2.65;2.42;;;22.70;99.90;;;;;;5223507;28;20330;-61
2022/07/24 01:36:38;;;;;;;3.67;2.10;;;22.60;99.90;;;;;;5243409;28;20314;-61
2022/07/24 01:39:10;;;;;;;3.33;2.78;;;22.60;99.90;;;;;;5243177;28;20213;-61
2022/07/24 01:41:43;;;;;;;2.75;2.00;;;22.50;99.90;;;;;;5222950;28;20048;-61
2022/07/24 01:44:15;;;;;;;4.17;2.53;;;22.50;99.90;;;;;;5239575;28;20020;-60
2022/07/24 01:46:46;;;;;;;4.65;3.72;;;22.40;99.90;;;;;;5241283;28;20034;-61
2022/07/24 01:49:17;;;;;;;3.25;2.67;;;22.40;99.90;;;;;;5225075;28;20254;-61
2022/07/24 01:51:57;;;;;;;3.03;2.30;;;22.30;99.90;;;;;;5222254;28;20043;-61
2022/07/24 01:54:28;;;;;;;4.03;2.25;;;22.30;99.90;;;;;;5241095;28;20020;-62
2022/07/24 01:57:02;;;;;;;4.15;2.67;;;22.20;99.90;;;;;;5221988;28;20025;-61
2022/07/24 01:59:40;;;;;;;2.55;2.20;;;22.20;99.90;;;;;;5241474;28;20021;-61
2022/07/24 02:02:11;;;;;;;3.10;2.75;;;22.20;99.90;;;;;;5241474;28;20037;-62
2022/07/24 02:04:43;;;;;;;3.53;2.85;;;22.10;99.90;;;;;;5213613;28;20156;-61
2022/07/24 02:07:16;;;;;;;4.57;2.72;;;22.10;99.90;;;;;;5225499;28;20020;-60
2022/07/24 02:09:53;;;;;;;3.53;2.28;;;22.10;99.90;;;;;;5240779;28;20194;-62
2022/07/24 02:12:27;;;;;;;3.60;2.60;;;22.00;99.90;;;;;;5241044;28;20208;-61
2022/07/24 02:14:58;;;;;;;4.15;2.92;;;22.00;99.90;;;;;;5241503;28;20021;-62
2022/07/24 02:17:29;;;;;;;3.65;2.58;;;21.90;99.90;;;;;;5224858;28;20035;-60
2022/07/24 02:20:02;;;;;;;3.78;2.75;;;22.00;99.90;;;;;;5244991;28;20191;-60
2022/07/24 02:22:34;;;;;;;2.75;2.35;;;21.90;99.90;;;;;;5223867;28;20035;-61
2022/07/24 02:25:12;;;;;;;3.17;2.80;;;21.90;99.90;;;;;;5239187;28;20024;-62
2022/07/24 02:27:45;;;;;;;4.05;2.38;;;21.90;99.90;;;;;;5261371;28;20023;-60
2022/07/24 02:30:19;;;;;;;3.78;2.67;;;21.90;99.90;;;;;;5264893;28;20050;-60
2022/07/24 02:32:54;;;;;;;5.05;3.17;;;21.80;99.90;;;;;;5203581;28;20027;-61
2022/07/24 02:35:25;;;;;;;5.38;2.50;;;21.80;99.90;;;;;;5205598;28;20029;-61
2022/07/24 02:37:59;;;;;;;3.80;2.67;;;21.80;99.90;;;;;;5220453;28;20031;-61
2022/07/24 02:40:31;;;;;;;3.90;3.00;;;21.80;99.90;;;;;;5221049;28;20021;-61
2022/07/24 02:43:03;;;;;;;4.53;2.92;;;21.70;99.90;;;;;;5241499;28;20355;-61
2022/07/24 02:45:36;;;;;;;3.78;3.05;;;21.70;99.90;;;;;;5241286;28;20031;-62
2022/07/24 02:48:09;;;;;;;4.10;3.03;;;21.70;99.90;;;;;;5241850;28;20020;-61
2022/07/24 02:50:40;;;;;;;4.20;3.20;;;21.70;99.90;;;;;;5220351;28;20302;-61
2022/07/24 02:53:11;;;;;;;4.40;3.30;;;21.60;99.90;;;;;;5224592;28;20035;-61
2022/07/24 02:55:48;;;;;;;4.72;3.08;;;21.60;99.90;;;;;;5241689;28;20588;-61
2022/07/24 02:58:19;;;;;;;3.55;2.95;;;21.60;99.90;;;;;;5241581;28;20020;-60
2022/07/24 03:00:50;;;;;;;3.72;3.15;;;21.60;99.90;;;;;;5242152;28;20183;-61
2022/07/24 03:03:22;;;;;;;4.40;2.90;;;21.50;99.90;;;;;;5241627;28;20035;-61
2022/07/24 03:05:53;;;;;;;4.47;3.03;;;21.40;99.90;;;;;;5228973;28;20218;-61
2022/07/24 03:08:26;;;;;;;4.65;3.10;;;21.40;99.90;;;;;;5240228;28;20051;-60
2022/07/24 03:10:57;;;;;;;4.22;3.08;;;21.40;99.90;;;;;;5220697;28;20040;-61
2022/07/24 03:13:28;;;;;;;3.60;2.60;;;21.30;99.90;;;;;;5240081;28;20286;-60
2022/07/24 03:16:02;;;;;;;3.15;2.72;;;21.30;99.90;;;;;;5225011;28;20023;-61
2022/07/24 03:18:33;;;;;;;5.90;3.25;;;21.30;99.90;;;;;;5239121;28;20028;-61
2022/07/24 03:21:07;;;;;;;6.15;3.42;;;21.30;99.90;;;;;;5240010;28;20376;-62
2022/07/24 03:23:41;;;;;;;3.53;2.90;;;21.30;99.90;;;;;;5205318;28;20327;-61
2022/07/24 03:26:13;;;;;;;4.68;2.90;;;21.20;99.90;;;;;;5223443;28;20028;-60
2022/07/24 03:28:49;;;;;;;3.83;2.95;;;21.20;99.90;;;;;;5241075;28;20021;-61
2022/07/24 03:31:20;;;;;;;4.72;3.38;;;21.10;99.90;;;;;;5240467;28;20024;-61
2022/07/24 03:33:56;;;;;;;5.00;2.65;;;21.10;99.90;;;;;;5241128;28;20205;-61
2022/07/24 03:36:30;;;;;;;5.15;3.47;;;21.10;99.90;;;;;;5238162;28;20329;-61
2022/07/24 03:39:02;;;;;;;4.25;3.33;;;21.00;99.90;;;;;;5239523;28;20183;-61
2022/07/24 03:41:36;;;;;;;5.28;3.10;;;21.00;99.90;;;;;;5238635;28;20589;-60
2022/07/24 03:44:07;;;;;;;3.85;3.20;;;21.00;99.90;;;;;;5239240;28;20024;-61
2022/07/24 03:46:41;;;;;;;4.30;3.30;;;21.00;99.90;;;;;;5220890;28;20050;-61
2022/07/24 03:49:12;;;;;;;5.75;2.97;;;20.90;99.90;;;;;;5238954;28;20050;-61
2022/07/24 03:51:45;;;;;;;4.45;3.17;;;20.90;99.90;;;;;;5223523;28;21263;-60
2022/07/24 03:54:18;;;;;;;3.88;3.45;;;20.90;99.90;;;;;;5222845;28;20024;-61
2022/07/24 03:56:53;;;;;;;4.13;3.22;;;20.90;99.90;;;;;;5244401;28;20448;-61
2022/07/24 03:59:24;;;;;;;4.10;3.55;;;20.90;99.90;;;;;;5219170;28;20304;-61
2022/07/24 04:01:57;;;;;;;5.88;3.40;;;20.90;99.90;;;;;;5238472;28;20025;-60
2022/07/24 04:04:29;;;;;;;4.43;3.50;;;20.90;99.90;;;;;;5223188;28;20029;-61
2022/07/24 04:07:00;;;;;;;4.70;3.38;;;21.00;99.90;;;;;;5227666;28;20046;-62
2022/07/24 04:09:34;;;;;;;3.80;3.30;;;21.00;99.90;;;;;;5204702;28;20039;-61
2022/07/24 04:12:05;;;;;;;5.57;3.85;;;21.00;99.90;;;;;;5239993;28;20036;-61
2022/07/24 04:14:40;;;;;;;9.18;4.38;;;21.00;99.90;;;;;;5239770;28;20074;-59
2022/07/24 04:17:26;;;;;;;5.05;3.53;;;21.10;99.90;;;;;;5238169;28;20032;-60
2022/07/24 04:19:58;;;;;;;5.32;3.55;;;21.10;99.90;;;;;;5242638;28;20021;-60
2022/07/24 04:22:29;;;;;;;5.03;3.92;;;21.20;99.90;;;;;;5225295;28;20028;-61
2022/07/24 04:25:04;;;;;;;4.90;4.10;;;21.20;99.90;;;;;;5240300;28;20032;-63
2022/07/24 04:27:38;;;;;;;5.65;3.85;;;21.40;99.90;;;;;;5227498;28;20036;-59
2022/07/24 04:30:12;;;;;;;3.95;3.55;;;21.50;99.90;;;;;;5227095;28;20031;-61
2022/07/24 04:32:43;;;;;;;5.70;3.50;;;21.50;99.90;;;;;;5239633;28;20035;-62
2022/07/24 04:35:15;;;;;;;5.40;3.63;;;21.50;99.90;;;;;;5221475;28;20179;-61
2022/07/24 04:37:49;;;;;;;5.07;3.63;;;21.50;99.90;;;;;;5240715;28;20020;-61
2022/07/24 04:40:20;;;;;;;4.87;3.67;;;21.40;99.90;;;;;;5240948;28;20021;-61
2022/07/24 04:42:51;;;;;;;5.43;4.20;;;21.50;99.90;;;;;;5238637;28;20257;-61
2022/07/24 04:45:22;;;;;;;4.47;3.50;;;21.40;99.90;;;;;;5237745;28;20042;-61
2022/07/24 04:47:54;;;;;;;4.05;3.35;;;21.40;99.90;;;;;;5238231;28;20037;-60
2022/07/24 04:50:28;;;;;;;3.60;2.95;;;21.40;99.90;;;;;;5237920;28;20036;-61
2022/07/24 04:53:02;;;;;;;6.10;3.47;;;21.50;99.90;;;;;;5219430;28;20415;-61
2022/07/24 04:55:39;;;;;;;5.82;3.88;;;21.50;99.90;;;;;;5243159;28;20027;-61
2022/07/24 04:58:10;;;;;;;5.15;3.28;;;21.50;99.90;;;;;;5225004;28;20035;-61
2022/07/24 05:00:46;;;;;;;5.45;3.80;;;21.40;99.90;;;;;;5223948;28;20040;-61
2022/07/24 05:03:20;;;;;;;3.88;3.05;;;21.50;99.90;;;;;;5241263;28;20027;-61
2022/07/24 05:05:51;;;;;;;10.70;5.60;;;21.50;99.90;;;;;;5212757;28;20242;-60
2022/07/24 05:08:25;;;;;;;7.28;4.47;;;21.50;99.90;;;;;;5248770;28;20028;-61
2022/07/24 05:10:56;;;;;;;4.15;3.75;;;21.50;99.90;;;;;;5223863;28;20036;-60
2022/07/24 05:13:27;;;;;;;6.90;4.40;;;21.40;99.90;;;;;;5240466;28;20024;-60
2022/07/24 05:16:01;;;;;;;5.97;4.25;;;21.40;99.90;;;;;;5222835;28;20079;-61
2022/07/24 05:18:34;;;;;;;4.90;3.88;;;21.50;99.90;;;;;;5222525;28;20031;-62
2022/07/24 05:21:08;;;;;;;4.25;3.13;;;21.50;99.90;;;;;;5223996;28;20049;-61
2022/07/24 05:23:40;;;;;;;4.25;3.55;;;21.60;99.90;;;;;;5224952;28;20028;-61
2022/07/24 05:26:13;;;;;;;5.07;3.60;;;21.60;99.90;;;;;;5208615;28;20032;-62
2022/07/24 05:28:46;;;;;;;5.68;4.53;;;21.70;99.90;;;;;;5225374;28;20034;-62
2022/07/24 05:31:17;;;;;;;4.75;3.78;;;21.80;99.90;;;;;;5243783;28;20237;-61
2022/07/24 05:33:50;;;;;;;5.60;3.97;;;21.90;99.90;;;;;;5222554;28;20112;-61
2022/07/24 05:36:21;;;;;;;5.38;4.25;;;21.90;99.90;;;;;;5239922;28;20028;-62
2022/07/24 05:38:52;;;;;;;3.95;3.45;;;22.00;99.90;;;;;;5242273;28;20035;-61
2022/07/24 05:41:23;;;;;;;4.20;3.60;;;22.00;99.90;;;;;;5243555;28;20034;-61
2022/07/24 05:43:55;;;;;;;5.57;3.55;;;22.20;99.90;;;;;;5241608;28;20020;-61
2022/07/24 05:46:26;;;;;;;4.68;3.65;;;22.40;99.90;;;;;;5241790;28;20020;-61
2022/07/24 05:48:57;;;;;;;5.35;4.05;;;22.50;99.90;;;;;;5240600;28;20308;-62
2022/07/24 05:51:31;;;;;;;5.40;3.40;;;22.60;99.90;;;;;;5239801;28;20025;-62
2022/07/24 05:54:02;;;;;;;3.22;2.92;;;22.70;99.90;;;;;;5241699;28;20017;-60
2022/07/24 05:56:37;;;;;;;4.57;3.42;;;22.70;99.90;;;;;;5241444;28;20030;-61
2022/07/24 05:59:12;;;;;;;3.90;3.30;;;22.80;99.90;;;;;;5242824;28;20028;-61
2022/07/24 06:01:46;;;;;;;3.13;2.50;;;23.00;99.90;;;;;;5242760;28;20024;-61
2022/07/24 06:04:20;;;;;;;3.70;3.05;;;23.00;99.90;;;;;;5222249;28;20040;-61
2022/07/24 06:06:54;;;;;;;3.90;3.05;;;23.00;99.90;;;;;;5182557;28;20350;-60
2022/07/24 06:09:30;;;;;;;3.55;2.60;;;22.90;99.90;;;;;;5221436;28;20028;-61
2022/07/24 06:12:03;;;;;;;4.60;3.08;;;22.70;99.90;;;;;;5223609;28;20362;-61
2022/07/24 06:14:40;;;;;;;4.30;3.58;;;22.90;99.90;;;;;;5239749;28;20314;-61
2022/07/24 06:17:14;;;;;;;5.03;2.50;;;23.20;99.90;;;;;;5242592;28;20024;-60
2022/07/24 06:19:47;;;;;;;3.80;3.50;;;23.30;99.90;;;;;;5204556;28;20235;-61
2022/07/24 06:22:18;;;;;;;3.22;2.80;;;23.30;99.90;;;;;;5224064;28;20043;-62
2022/07/24 06:24:55;;;;;;;3.72;2.97;;;23.30;99.90;;;;;;5243967;28;20281;-61
2022/07/24 06:27:26;;;;;;;4.00;2.72;;;23.30;99.90;;;;;;5243324;28;20037;-61
2022/07/24 06:30:03;;;;;;;5.65;2.88;;;23.40;99.90;;;;;;5223421;28;20016;-61
2022/07/24 06:32:36;;;;;;;2.80;2.30;;;23.30;99.90;;;;;;5222503;28;20198;-62
2022/07/24 06:35:08;;;;;;;4.22;2.88;;;23.50;99.90;;;;;;5241491;28;20063;-60
2022/07/24 06:37:41;;;;;;;3.95;2.85;;;23.50;99.90;;;;;;5207573;28;20325;-60
2022/07/24 06:40:14;;;;;;;2.92;2.65;;;23.30;99.90;;;;;;5222904;28;20059;-60
2022/07/24 06:42:52;;;;;;;3.38;2.55;;;23.30;99.90;;;;;;5241765;28;20041;-60
2022/07/24 06:45:26;;;;;;;3.20;2.50;;;23.40;99.90;;;;;;5239739;28;20016;-60
2022/07/24 06:48:01;;;;;;;2.40;2.17;;;23.30;99.90;;;;;;5223562;28;20028;-59
2022/07/24 06:50:32;;;;;;;2.75;2.10;;;23.30;99.90;;;;;;5223424;28;20057;-60
2022/07/24 06:53:04;;;;;;;2.95;2.22;;;23.60;99.90;;;;;;5238929;28;20063;-60
2022/07/24 06:55:35;;;;;;;2.22;2.03;;;23.60;99.90;;;;;;5241799;28;20017;-60
2022/07/24 06:58:09;;;;;;;2.92;2.53;;;23.70;99.90;;;;;;5221919;28;20197;-61
2022/07/24 07:00:43;;;;;;;2.47;2.22;;;23.90;99.90;;;;;;5240786;28;20047;-60
2022/07/24 07:03:18;;;;;;;3.90;2.90;;;23.90;99.90;;;;;;5223858;28;20210;-60
2022/07/24 07:05:49;;;;;;;2.83;2.53;;;23.90;99.90;;;;;;5225765;28;20048;-60
2022/07/24 07:08:23;;;;;;;2.97;2.45;;;24.00;99.90;;;;;;5257790;28;20034;-60
2022/07/24 07:10:54;;;;;;;2.38;2.15;;;24.20;99.90;;;;;;5242785;28;20032;-61
2022/07/24 07:13:26;;;;;;;4.07;2.60;;;24.10;99.90;;;;;;5227239;28;20179;-61
2022/07/24 07:15:59;;;;;;;2.42;2.15;;;24.40;99.90;;;;;;5227673;28;20036;-60
2022/07/24 07:18:35;;;;;;;3.58;2.55;;;24.50;99.90;;;;;;5242221;28;20035;-61
2022/07/24 07:21:07;;;;;;;2.83;2.47;;;24.40;99.90;;;;;;5225035;28;20034;-60
2022/07/24 07:23:38;;;;;;;3.78;2.78;;;24.10;99.90;;;;;;5222699;28;20294;-60
2022/07/24 07:26:12;;;;;;;4.60;2.80;;;24.30;99.90;;;;;;5223058;28;20033;-60
2022/07/24 07:28:43;;;;;;;2.20;1.95;;;24.40;99.90;;;;;;5240292;28;20031;-60
2022/07/24 07:31:14;;;;;;;2.78;2.25;;;24.60;99.90;;;;;;5240661;28;20029;-60
2022/07/24 07:33:46;;;;;;;2.88;2.03;;;24.60;99.90;;;;;;5240731;28;20027;-59
2022/07/24 07:36:17;;;;;;;2.72;2.35;;;24.70;99.90;;;;;;5221779;28;20020;-61
2022/07/24 07:38:54;;;;;;;3.15;2.72;;;24.90;99.90;;;;;;5205973;28;20038;-61
2022/07/24 07:41:27;;;;;;;3.80;2.33;;;25.20;99.90;;;;;;5222146;28;20032;-60
2022/07/24 07:44:04;;;;;;;3.45;2.25;;;25.20;99.90;;;;;;5239232;28;20020;-61
2022/07/24 07:46:35;;;;;;;6.63;2.70;;;25.20;99.90;;;;;;5205765;28;20205;-60
2022/07/24 07:49:07;;;;;;;3.50;2.08;;;25.20;99.90;;;;;;5238580;28;20031;-61
2022/07/24 07:51:38;;;;;;;3.38;1.98;;;25.20;99.90;;;;;;5221242;28;20031;-61
2022/07/24 07:54:11;;;;;;;2.92;2.38;;;25.20;99.90;;;;;;5240772;28;20016;-62
2022/07/24 07:56:45;;;;;;;2.40;1.83;;;25.50;99.90;;;;;;5238874;28;20024;-61
2022/07/24 07:59:16;;;;;;;4.47;2.00;;;25.90;99.90;;;;;;5239086;28;20027;-60
2022/07/24 08:01:50;;;;;;;3.10;2.10;;;25.80;99.90;;;;;;5223683;28;20037;-60
2022/07/24 08:04:25;;;;;;;2.80;1.80;;;25.70;99.90;;;;;;5228871;28;20354;-61
2022/07/24 08:06:59;;;;;;;2.40;2.20;;;25.50;99.90;;;;;;5207379;28;20032;-61
2022/07/24 08:09:30;;;;;;;;;;;25.60;99.90;;;;;;5209599;28;20243;-62
2022/07/24 08:12:01;;;;;;;2.55;2.10;;;26.30;99.90;;;;;;5243579;28;19908;-62
2022/07/24 08:14:35;;;;;;;2.10;1.73;;;26.20;99.90;;;;;;5246967;28;20039;-61
2022/07/24 08:17:09;;;;;;;2.60;2.00;;;26.40;99.90;;;;;;5242517;28;20020;-61
2022/07/24 08:19:41;;;;;;;3.88;2.00;;;26.40;99.90;;;;;;5205829;28;20175;-59
2022/07/24 08:22:15;;;;;;;3.65;1.70;;;26.20;99.90;;;;;;5221883;28;20393;-61
2022/07/24 08:24:50;;;;;;;2.63;2.17;;;26.30;99.90;;;;;;5238631;28;20016;-61
2022/07/24 08:27:23;;;;;;;2.20;2.00;;;26.20;99.90;;;;;;5214242;28;20271;-61
2022/07/24 08:29:54;;;;;;;2.90;1.90;;;26.30;99.90;;;;;;5242155;28;20319;-60
2022/07/24 08:32:26;;;;;;;3.10;1.83;;;26.40;99.90;;;;;;5243208;28;20237;-60
2022/07/24 08:34:59;;;;;;;5.22;2.60;;;26.40;99.90;;;;;;5243783;28;20055;-62
2022/07/24 08:37:38;;;;;;;2.40;1.83;;;26.40;99.90;;;;;;5252074;28;20015;-61
2022/07/24 08:40:11;;;;;;;2.15;1.80;;;26.40;99.90;;;;;;5264224;28;20030;-59
2022/07/24 08:42:43;;;;;;;3.22;1.98;;;26.40;99.90;;;;;;5263024;28;20031;-61
2022/07/24 08:45:15;;;;;;;2.25;1.90;;;26.50;99.90;;;;;;5245444;28;20028;-61
2022/07/24 08:47:54;;;;;;;2.63;2.13;;;26.90;99.90;;;;;;5264438;28;20193;-62
2022/07/24 08:50:27;;;;;;;3.60;1.77;;;27.10;99.90;;;;;;5255110;28;20302;-60
2022/07/24 08:53:00;;;;;;;2.05;1.67;;;27.00;99.90;;;;;;5243586;28;20310;-59
2022/07/24 08:55:34;;;;;;;3.40;2.10;;;27.20;99.90;;;;;;5225937;28;20313;-62
2022/07/24 08:58:06;;;;;;;2.08;1.88;;;27.00;99.90;;;;;;5236479;28;20016;-62
2022/07/24 09:00:37;;;;;;;2.35;1.73;;;27.50;99.90;;;;;;5240809;28;20636;-62
2022/07/24 09:03:12;;;;;;;3.53;2.28;;;27.50;99.90;;;;;;5206370;28;20051;-61
2022/07/24 09:05:53;;;;;;;;;;;28.00;99.90;;;;;;5195877;28;20059;-61
2022/07/24 09:08:27;;;;;;;5.32;2.28;;;27.70;99.90;;;;;;5257139;28;19904;-60
2022/07/24 09:11:03;;;;;;;3.17;2.30;;;27.30;99.90;;;;;;5263718;28;20310;-62
2022/07/24 09:16:35;;;;;;;2.25;1.70;;;27.20;99.90;;;;;;5240697;28;20024;-61
2022/07/24 09:19:10;;;;;;;2.35;1.90;;;27.30;99.90;;;;;;5242072;28;20330;-61
2022/07/24 09:21:44;;;;;;;2.03;1.70;;;27.50;99.90;;;;;;5242700;28;20021;-61
2022/07/24 09:24:20;;;;;;;2.07;1.73;;;27.60;99.90;;;;;;5237559;28;20130;-61
2022/07/24 09:26:56;;;;;;;1.60;1.50;;;27.60;99.90;;;;;;5204570;28;20032;-60
2022/07/24 09:29:27;;;;;;;2.63;1.73;;;27.90;99.90;;;;;;5224998;28;20020;-62
2022/07/24 09:32:01;;;;;;;2.00;1.88;;;27.90;99.90;;;;;;5223306;28;20020;-60
2022/07/24 09:34:39;;;;;;;2.22;2.03;;;27.90;99.90;;;;;;5243128;28;20027;-61
2022/07/24 09:37:12;;;;;;;1.45;1.33;;;27.80;99.90;;;;;;5225351;28;20035;-62
2022/07/24 09:39:49;;;;;;;2.03;1.70;;;28.10;99.90;;;;;;5242338;28;20023;-62
2022/07/24 09:42:29;;;;;;;1.75;1.65;;;28.70;99.90;;;;;;5218984;28;20370;-62
2022/07/24 09:45:03;;;;;;;1.85;1.75;;;29.30;99.90;;;;;;5244251;28;20020;-62
2022/07/24 09:47:35;;;;;;;2.42;1.70;;;27.90;99.90;;;;;;5244008;28;20031;-61
2022/07/24 09:50:18;;;;;;;3.10;2.03;;;27.80;99.90;;;;;;5239740;28;20313;-60
2022/07/24 09:52:53;;;;;;;2.03;1.83;;;28.10;99.90;;;;;;5238005;28;20032;-63
2022/07/24 09:55:27;;;;;;;2.58;1.70;;;28.20;99.90;;;;;;5220508;28;20361;-65
2022/07/24 09:58:04;;;;;;;1.83;1.60;;;28.40;99.90;;;;;;5222694;28;20035;-61
2022/07/24 10:00:40;;;;;;;1.60;1.50;;;28.20;99.90;;;;;;5241314;28;20031;-61
2022/07/24 10:03:18;;;;;;;2.08;1.77;;;28.70;99.90;;;;;;5243021;28;20028;-61
2022/07/24 10:05:59;;;;;;;2.00;1.80;;;28.90;99.90;;;;;;5230909;28;20052;-62
2022/07/24 10:08:34;;;;;;;1.67;1.58;;;29.20;99.90;;;;;;5225699;28;20040;-62
2022/07/24 10:11:14;;;;;;;1.73;1.58;;;28.90;99.90;;;;;;5240621;28;20040;-62
2022/07/24 10:13:46;;;;;;;2.72;1.60;;;29.40;99.90;;;;;;5240275;28;20032;-63
2022/07/24 10:16:35;;;;;;;1.80;1.70;;;29.00;99.90;;;;;;5258772;28;20034;-61
2022/07/24 10:19:12;;;;;;;2.60;1.70;;;29.00;99.90;;;;;;5262307;28;20019;-61
2022/07/24 10:21:54;;;;;;;1.80;1.60;;;29.50;99.90;;;;;;5240494;28;20028;-62
2022/07/24 10:24:44;;;;;;;2.15;1.70;;;30.40;99.90;;;;;;5214087;28;20889;-61
2022/07/24 10:27:38;;;;;;;1.95;1.65;;;29.90;99.90;;;;;;5224462;28;20032;-61
2022/07/24 10:30:13;;;;;;;3.10;1.95;;;29.70;99.90;;;;;;5225667;28;20046;-60
2022/07/24 10:32:46;;;;;;;1.80;1.60;;;29.70;99.90;;;;;;5245529;28;20316;-61
2022/07/24 10:35:25;;;;;;;1.83;1.70;;;29.60;99.90;;;;;;5241518;28;20020;-61
2022/07/24 10:38:24;;;;;;;3.97;1.88;;;30.70;99.90;;;;;;5241111;28;20027;-61
2022/07/24 10:41:05;;;;;;;2.03;1.80;;;31.00;99.90;;;;;;5248932;28;20042;-61
2022/07/24 10:43:38;;;;;;;1.45;1.35;;;31.30;99.90;;;;;;5262493;28;20022;-62
2022/07/24 10:46:11;;;;;;;1.70;1.60;;;30.90;99.90;;;;;;5263816;28;20513;-61
2022/07/24 10:48:42;;;;;;;1.90;1.52;;;31.10;99.90;;;;;;5264993;28;20028;-62
2022/07/24 10:51:17;;;;;;;2.08;1.88;;;30.70;99.90;;;;;;5239674;28;20039;-62
2022/07/24 10:53:56;;;;;;;2.10;1.80;;;32.10;99.90;;;;;;5237705;28;20028;-62
2022/07/24 10:56:28;;;;;;;2.70;1.90;;;32.00;99.90;;;;;;5240964;28;20020;-62
2022/07/24 10:59:02;;;;;;;1.42;1.33;;;31.70;99.90;;;;;;5222509;28;20017;-63
2022/07/24 11:01:47;;;;;;;1.50;1.40;;;32.80;99.90;;;;;;5221080;28;20020;-62
2022/07/24 11:04:20;;;;;;;1.73;1.63;;;33.20;99.90;;;;;;5228430;28;20407;-63
2022/07/24 11:07:11;;;;;;;2.90;1.70;;;32.70;99.90;;;;;;5259203;28;20020;-62
2022/07/24 11:10:07;;;;;;;2.40;1.65;;;32.80;99.90;;;;;;5261125;28;20020;-61
2022/07/24 11:12:43;;;;;;;1.67;1.55;;;32.40;99.90;;;;;;5257716;28;20021;-63
2022/07/24 11:18:23;;;;;;;2.33;2.00;;;33.60;99.90;;;;;;5176914;28;20331;-60
2022/07/24 11:21:00;;;;;;;2.22;1.77;;;33.90;99.90;;;;;;5166931;28;20029;-62
2022/07/24 11:23:34;;;;;;;1.95;1.85;;;33.50;99.90;;;;;;5177535;28;20058;-61
2022/07/24 11:26:32;;;;;;;1.73;1.60;;;33.70;99.90;;;;;;5162927;28;20029;-63
2022/07/24 11:29:18;;;;;;;2.30;1.85;;;33.90;99.90;;;;;;5176421;28;20028;-63
2022/07/24 11:32:14;;;;;;;1.98;1.77;;;32.80;99.90;;;;;;5175519;28;20302;-62
2022/07/24 11:34:57;;;;;;;2.70;2.00;;;33.50;99.90;;;;;;5176142;28;20048;-62
2022/07/24 11:37:33;;;;;;;2.38;1.80;;;32.90;99.90;;;;;;5160429;28;20051;-63
2022/07/24 11:40:12;;;;;;;2.20;2.00;;;33.60;99.90;;;;;;5176588;28;20330;-60
2022/07/24 11:42:44;;;;;;;2.28;2.08;;;35.70;99.90;;;;;;5164508;28;20037;-61
2022/07/24 11:45:15;;;;;;;3.25;1.80;;;34.70;99.90;;;;;;5178179;28;20366;-62
2022/07/24 11:47:46;;;;;;;3.08;2.08;;;35.30;99.90;;;;;;5178845;28;20032;-61
2022/07/24 11:50:20;;;;;;;2.53;1.90;;;35.60;99.90;;;;;;5156325;28;20068;-61
2022/07/24 11:52:53;;;;;;;5.38;2.60;;;34.10;99.90;;;;;;5219960;28;20240;-62
2022/07/24 11:55:24;;;;;;;2.15;1.95;;;33.80;99.90;;;;;;5240882;28;20294;-62
2022/07/24 11:58:01;;;;;;;1.90;1.73;;;34.00;99.90;;;;;;5241039;28;20039;-60
2022/07/24 12:00:34;;;;;;;3.50;2.25;;;33.20;99.90;;;;;;5224758;28;20198;-62
2022/07/24 12:03:09;;;;;;;2.20;1.90;;;33.30;99.90;;;;;;5239043;28;20020;-61
2022/07/24 12:05:45;;;;;;;2.15;1.65;;;34.40;99.90;;;;;;5228377;28;20334;-61
2022/07/24 12:08:26;;;;;;;2.13;1.90;;;34.90;99.90;;;;;;5223358;28;20043;-61
2022/07/24 12:10:59;;;;;;;3.08;2.10;;;35.60;99.80;;;;;;5225905;28;20042;-63
2022/07/24 12:13:42;;;;;;;4.88;2.28;;;36.90;98.70;;;;;;5261030;28;20020;-64
2022/07/24 12:16:28;;;;;;;2.22;1.80;;;37.20;98.60;;;;;;5234945;28;20257;-63
2022/07/24 12:19:21;;;;;;;2.15;1.80;;;36.70;99.30;;;;;;5237932;28;20024;-62
2022/07/24 12:21:53;;;;;;;2.08;1.80;;;36.30;97.90;;;;;;5240446;28;20325;-61
2022/07/24 12:24:27;;;;;;;2.40;2.20;;;36.50;98.70;;;;;;5239979;28;20027;-62
2022/07/24 12:26:58;;;;;;;;;;;37.40;96.50;;;;;;5238314;28;20024;-62
2022/07/24 12:29:40;;;;;;;2.30;2.10;;;35.00;97.90;;;;;;5238682;28;19907;-63
2022/07/24 12:32:18;;;;;;;2.38;2.10;;;35.10;98.50;;;;;;5239048;28;20114;-63
2022/07/24 12:34:52;;;;;;;2.33;2.13;;;35.50;97.70;;;;;;5222283;28;20028;-64
2022/07/24 12:37:23;;;;;;;2.42;2.17;;;35.10;98.30;;;;;;5238993;28;20289;-62
2022/07/24 12:39:57;;;;;;;2.22;2.03;;;35.90;97.90;;;;;;5246401;28;20030;-64
2022/07/24 12:42:30;;;;;;;3.10;2.20;;;34.90;97.90;;;;;;5200094;28;20051;-63
2022/07/24 12:45:09;;;;;;;2.10;1.90;;;34.00;98.00;;;;;;5202638;28;20023;-62
2022/07/24 12:48:18;;;;;;;2.08;1.88;;;34.50;97.90;;;;;;5196780;28;20043;-61
2022/07/24 12:51:03;;;;;;;2.10;1.90;;;35.40;97.70;;;;;;5223037;28;20027;-63
2022/07/24 12:53:36;;;;;;;2.33;2.10;;;35.20;97.30;;;;;;5241386;28;20032;-60
2022/07/24 12:56:09;;;;;;;2.27;2.07;;;35.10;97.10;;;;;;5239035;28;20317;-62
2022/07/24 12:58:48;;;;;;;2.80;2.17;;;34.80;97.80;;;;;;5220653;28;20096;-61
2022/07/24 13:01:22;;;;;;;2.63;2.13;;;33.40;98.70;;;;;;5237431;28;20023;-63
2022/07/24 13:04:01;;;;;;;4.85;1.85;;;32.90;99.30;;;;;;5221051;28;20033;-60
2022/07/24 13:06:34;;;;;;;2.00;1.80;;;33.60;99.50;;;;;;5211661;28;20036;-63
2022/07/24 13:09:08;;;;;;;2.45;2.03;;;33.70;99.30;;;;;;5219921;28;20020;-64
2022/07/24 13:11:40;;;;;;;2.85;2.05;;;34.80;98.60;;;;;;5238996;28;20036;-63
2022/07/24 13:14:13;;;;;;;3.35;2.50;;;34.80;98.60;;;;;;5217874;28;20032;-62
2022/07/24 13:16:47;;;;;;;3.05;2.13;;;35.20;97.80;;;;;;5220264;28;20204;-62
2022/07/24 13:19:20;;;;;;;;;;;34.90;97.90;;;;;;5243014;28;20025;-61
2022/07/24 13:21:51;;;;;;;1.83;1.63;;;36.10;97.00;;;;;;5243462;28;19926;-62
2022/07/24 13:24:24;;;;;;;2.03;1.85;;;36.20;97.10;;;;;;5242092;28;20218;-63
2022/07/24 13:26:59;;;;;;;2.72;2.00;;;35.60;97.20;;;;;;5242350;28;20205;-62
2022/07/24 13:29:31;;;;;;;2.22;1.70;;;35.50;96.80;;;;;;5223959;28;20039;-61
2022/07/24 13:32:03;;;;;;;2.25;2.05;;;34.30;97.80;;;;;;5243621;28;20022;-63